sensor_id;sensor_type;location;lat;lon;timestamp;pressure;altitude;pressure_sealevel;temperature;humidity
53480;BME280;56133;51.012;-1.648;2022-08-03T00:01:00;100511.41;;;18.39;100.00
53480;BME280;56133;51.012;-1.648;2022-08-03T00:03:26;100508.13;;;18.44;100.00
53480;BME280;56133;51.012;-1.648;2022-08-03T00:05:51;100512.31;;;18.31;100.00
53480;BME280;56133;51.012;-1.648;2022-08-03T00:08:17;100505.28;;;18.37;100.00
53480;BME280;56133;51.012;-1.648;2022-08-03T00:10:43;100506.97;;;18.38;100.00
53480;BME280;56133;51.012;-1.648;2022-08-03T00:13:08;100497.53;;;18.34;100.00
53480;BME280;56133;51.012;-1.648;2022-08-03T00:15:37;100494.72;;;18.42;100.00
53480;BME280;56133;51.012;-1.648;2022-08-03T00:18:03;100489.38;;;18.34;100.00
53480;BME280;56133;51.012;-1.648;2022-08-03T00:20:28;100486.66;;;18.49;100.00
53480;BME280;56133;51.012;-1.648;2022-08-03T00:22:53;100483.38;;;18.39;100.00
53480;BME280;56133;51.012;-1.648;2022-08-03T00:25:19;100489.94;;;18.44;100.00
53480;BME280;56133;51.012;-1.648;2022-08-03T00:27:44;100491.31;;;18.40;100.00
53480;BME280;56133;51.012;-1.648;2022-08-03T00:30:10;100488.13;;;18.37;100.00
53480;BME280;56133;51.012;-1.648;2022-08-03T00:32:35;100487.69;;;18.33;100.00
53480;BME280;56133;51.012;-1.648;2022-08-03T00:35:01;100487.00;;;18.31;100.00
53480;BME280;56133;51.012;-1.648;2022-08-03T00:37:26;100485.41;;;18.37;100.00
53480;BME280;56133;51.012;-1.648;2022-08-03T00:39:52;100488.34;;;18.35;100.00
53480;BME280;56133;51.012;-1.648;2022-08-03T00:42:17;100484.28;;;18.46;100.00
53480;BME280;56133;51.012;-1.648;2022-08-03T00:44:43;100480.91;;;18.29;100.00
53480;BME280;56133;51.012;-1.648;2022-08-03T00:47:09;100481.84;;;18.36;100.00
53480;BME280;56133;51.012;-1.648;2022-08-03T00:49:38;100479.34;;;18.49;100.00
53480;BME280;56133;51.012;-1.648;2022-08-03T00:52:07;100480.06;;;18.43;100.00
53480;BME280;56133;51.012;-1.648;2022-08-03T00:54:33;100476.59;;;18.34;100.00
53480;BME280;56133;51.012;-1.648;2022-08-03T00:57:00;100479.31;;;18.34;100.00
53480;BME280;56133;51.012;-1.648;2022-08-03T00:59:26;100480.03;;;18.28;100.00
53480;BME280;56133;51.012;-1.648;2022-08-03T01:01:52;100472.38;;;18.32;100.00
53480;BME280;56133;51.012;-1.648;2022-08-03T01:04:18;100474.25;;;18.31;100.00
53480;BME280;56133;51.012;-1.648;2022-08-03T01:12:37;100466.84;;;18.40;100.00
53480;BME280;56133;51.012;-1.648;2022-08-03T01:15:42;100463.28;;;18.40;100.00
53480;BME280;56133;51.012;-1.648;2022-08-03T01:18:14;100458.19;;;18.22;100.00
53480;BME280;56133;51.012;-1.648;2022-08-03T01:20:48;100455.47;;;18.22;100.00
53480;BME280;56133;51.012;-1.648;2022-08-03T01:23:36;100455.78;;;18.27;100.00
53480;BME280;56133;51.012;-1.648;2022-08-03T01:31:40;100449.59;;;18.33;100.00
53480;BME280;56133;51.012;-1.648;2022-08-03T01:34:09;100441.34;;;18.26;100.00
53480;BME280;56133;51.012;-1.648;2022-08-03T01:36:41;100439.09;;;18.30;100.00
53480;BME280;56133;51.012;-1.648;2022-08-03T01:39:08;100441.81;;;18.30;100.00
53480;BME280;56133;51.012;-1.648;2022-08-03T01:41:57;100431.03;;;18.37;100.00
53480;BME280;56133;51.012;-1.648;2022-08-03T01:44:25;100431.75;;;18.30;100.00
53480;BME280;56133;51.012;-1.648;2022-08-03T01:46:55;100431.59;;;18.32;100.00
53480;BME280;56133;51.012;-1.648;2022-08-03T01:49:23;100429.34;;;18.35;100.00
53480;BME280;56133;51.012;-1.648;2022-08-03T01:51:50;100424.25;;;18.32;100.00
53480;BME280;56133;51.012;-1.648;2022-08-03T01:54:17;100425.97;;;18.33;100.00
53480;BME280;56133;51.012;-1.648;2022-08-03T01:56:45;100429.53;;;18.34;100.00
53480;BME280;56133;51.012;-1.648;2022-08-03T01:59:14;100427.84;;;18.33;100.00
53480;BME280;56133;51.012;-1.648;2022-08-03T02:01:42;100427.28;;;18.38;100.00
53480;BME280;56133;51.012;-1.648;2022-08-03T02:04:10;100426.41;;;18.37;100.00
53480;BME280;56133;51.012;-1.648;2022-08-03T02:06:38;100427.34;;;18.29;100.00
53480;BME280;56133;51.012;-1.648;2022-08-03T02:09:05;100422.31;;;18.26;100.00
53480;BME280;56133;51.012;-1.648;2022-08-03T02:11:31;100417.25;;;18.23;100.00
53480;BME280;56133;51.012;-1.648;2022-08-03T02:14:00;100418.28;;;18.22;100.00
53480;BME280;56133;51.012;-1.648;2022-08-03T02:16:30;100419.47;;;18.19;100.00
53480;BME280;56133;51.012;-1.648;2022-08-03T02:18:58;100420.78;;;18.24;100.00
53480;BME280;56133;51.012;-1.648;2022-08-03T02:21:25;100419.97;;;18.23;100.00
53480;BME280;56133;51.012;-1.648;2022-08-03T02:23:53;100409.53;;;18.27;100.00
53480;BME280;56133;51.012;-1.648;2022-08-03T02:26:19;100411.03;;;18.29;100.00
53480;BME280;56133;51.012;-1.648;2022-08-03T02:28:47;100403.38;;;18.33;100.00
53480;BME280;56133;51.012;-1.648;2022-08-03T02:31:18;100402.72;;;18.31;100.00
53480;BME280;56133;51.012;-1.648;2022-08-03T02:33:50;100403.06;;;18.28;100.00
53480;BME280;56133;51.012;-1.648;2022-08-03T02:36:20;100405.78;;;18.28;100.00
53480;BME280;56133;51.012;-1.648;2022-08-03T02:38:48;100406.09;;;18.33;100.00
53480;BME280;56133;51.012;-1.648;2022-08-03T02:41:17;100398.66;;;18.27;100.00
53480;BME280;56133;51.012;-1.648;2022-08-03T02:43:47;100406.16;;;18.25;100.00
53480;BME280;56133;51.012;-1.648;2022-08-03T02:46:17;100405.59;;;18.29;100.00
53480;BME280;56133;51.012;-1.648;2022-08-03T02:48:45;100397.94;;;18.33;100.00
53480;BME280;56133;51.012;-1.648;2022-08-03T02:51:12;100394.72;;;18.29;100.00
53480;BME280;56133;51.012;-1.648;2022-08-03T02:53:39;100393.69;;;18.30;100.00
53480;BME280;56133;51.012;-1.648;2022-08-03T02:56:05;100394.56;;;18.31;100.00
53480;BME280;56133;51.012;-1.648;2022-08-03T02:58:32;100401.31;;;18.35;100.00
53480;BME280;56133;51.012;-1.648;2022-08-03T03:00:58;100400.34;;;18.28;100.00
53480;BME280;56133;51.012;-1.648;2022-08-03T03:03:25;100404.09;;;18.27;100.00
53480;BME280;56133;51.012;-1.648;2022-08-03T03:05:51;100405.22;;;18.32;100.00
53480;BME280;56133;51.012;-1.648;2022-08-03T03:08:18;100403.75;;;18.30;100.00
53480;BME280;56133;51.012;-1.648;2022-08-03T03:10:45;100413.38;;;18.32;100.00
53480;BME280;56133;51.012;-1.648;2022-08-03T03:13:13;100407.94;;;18.32;100.00
53480;BME280;56133;51.012;-1.648;2022-08-03T03:15:39;100410.00;;;18.30;100.00
53480;BME280;56133;51.012;-1.648;2022-08-03T03:18:06;100411.53;;;18.33;100.00
53480;BME280;56133;51.012;-1.648;2022-08-03T03:20:35;100407.13;;;18.32;100.00
53480;BME280;56133;51.012;-1.648;2022-08-03T03:23:02;100403.53;;;18.31;100.00
53480;BME280;56133;51.012;-1.648;2022-08-03T03:25:30;100403.16;;;18.34;100.00
53480;BME280;56133;51.012;-1.648;2022-08-03T03:27:58;100405.06;;;18.34;100.00
53480;BME280;56133;51.012;-1.648;2022-08-03T03:30:25;100397.28;;;18.31;100.00
53480;BME280;56133;51.012;-1.648;2022-08-03T03:32:50;100400.66;;;18.33;100.00
53480;BME280;56133;51.012;-1.648;2022-08-03T03:35:17;100405.88;;;18.34;100.00
53480;BME280;56133;51.012;-1.648;2022-08-03T03:37:42;100409.63;;;18.33;100.00
53480;BME280;56133;51.012;-1.648;2022-08-03T03:40:08;100413.94;;;18.28;100.00
53480;BME280;56133;51.012;-1.648;2022-08-03T03:42:34;100418.81;;;18.32;100.00
53480;BME280;56133;51.012;-1.648;2022-08-03T03:45:04;100416.78;;;18.34;100.00
53480;BME280;56133;51.012;-1.648;2022-08-03T03:47:29;100414.53;;;18.23;100.00
53480;BME280;56133;51.012;-1.648;2022-08-03T03:49:56;100416.78;;;18.34;100.00
53480;BME280;56133;51.012;-1.648;2022-08-03T03:52:22;100413.31;;;18.41;100.00
53480;BME280;56133;51.012;-1.648;2022-08-03T03:54:47;100418.47;;;18.35;100.00
53480;BME280;56133;51.012;-1.648;2022-08-03T03:57:13;100418.66;;;18.34;100.00
53480;BME280;56133;51.012;-1.648;2022-08-03T03:59:41;100419.69;;;18.33;100.00
53480;BME280;56133;51.012;-1.648;2022-08-03T04:02:08;100417.06;;;18.40;100.00
53480;BME280;56133;51.012;-1.648;2022-08-03T04:04:35;100416.47;;;18.29;100.00
53480;BME280;56133;51.012;-1.648;2022-08-03T04:07:19;100421.44;;;18.26;100.00
53480;BME280;56133;51.012;-1.648;2022-08-03T04:10:14;100414.31;;;18.25;100.00
53480;BME280;56133;51.012;-1.648;2022-08-03T04:13:01;100420.88;;;18.30;100.00
53480;BME280;56133;51.012;-1.648;2022-08-03T04:15:30;100422.31;;;18.26;100.00
53480;BME280;56133;51.012;-1.648;2022-08-03T04:17:58;100429.72;;;18.32;100.00
53480;BME280;56133;51.012;-1.648;2022-08-03T04:20:29;100427.34;;;18.29;100.00
53480;BME280;56133;51.012;-1.648;2022-08-03T04:22:57;100425.66;;;18.28;100.00
53480;BME280;56133;51.012;-1.648;2022-08-03T04:25:28;100424.47;;;18.31;100.00
53480;BME280;56133;51.012;-1.648;2022-08-03T04:27:54;100422.78;;;18.30;100.00
53480;BME280;56133;51.012;-1.648;2022-08-03T04:30:27;100421.09;;;18.29;100.00
53480;BME280;56133;51.012;-1.648;2022-08-03T04:32:57;100422.88;;;18.37;100.00
53480;BME280;56133;51.012;-1.648;2022-08-03T04:35:28;100416.00;;;18.26;100.00
53480;BME280;56133;51.012;-1.648;2022-08-03T04:38:00;100422.78;;;18.30;100.00
53480;BME280;56133;51.012;-1.648;2022-08-03T04:40:32;100426.72;;;18.27;100.00
53480;BME280;56133;51.012;-1.648;2022-08-03T04:42:59;100418.28;;;18.22;100.00
53480;BME280;56133;51.012;-1.648;2022-08-03T04:45:27;100415.56;;;18.22;100.00
53480;BME280;56133;51.012;-1.648;2022-08-03T04:47:53;100420.91;;;18.15;100.00
53480;BME280;56133;51.012;-1.648;2022-08-03T04:50:19;100416.22;;;18.24;100.00
53480;BME280;56133;51.012;-1.648;2022-08-03T04:52:46;100406.38;;;18.23;100.00
53480;BME280;56133;51.012;-1.648;2022-08-03T04:55:26;100406.53;;;18.22;100.00
53480;BME280;56133;51.012;-1.648;2022-08-03T04:57:52;100410.13;;;18.22;100.00
53480;BME280;56133;51.012;-1.648;2022-08-03T05:00:18;100411.50;;;18.18;100.00
53480;BME280;56133;51.012;-1.648;2022-08-03T05:02:43;100414.53;;;18.23;100.00
53480;BME280;56133;51.012;-1.648;2022-08-03T05:05:09;100403.72;;;18.15;100.00
53480;BME280;56133;51.012;-1.648;2022-08-03T05:07:36;100410.47;;;18.19;100.00
53480;BME280;56133;51.012;-1.648;2022-08-03T05:10:06;100413.66;;;18.23;100.00
53480;BME280;56133;51.012;-1.648;2022-08-03T05:12:32;100408.72;;;18.26;100.00
53480;BME280;56133;51.012;-1.648;2022-08-03T05:14:57;100412.19;;;18.35;100.00
53480;BME280;56133;51.012;-1.648;2022-08-03T05:17:23;100405.53;;;18.38;100.00
53480;BME280;56133;51.012;-1.648;2022-08-03T05:19:48;100412.06;;;18.28;100.00
53480;BME280;56133;51.012;-1.648;2022-08-03T05:22:14;100416.56;;;18.36;100.00
53480;BME280;56133;51.012;-1.648;2022-08-03T05:24:39;100415.44;;;18.30;100.00
53480;BME280;56133;51.012;-1.648;2022-08-03T05:27:05;100418.16;;;18.30;100.00
53480;BME280;56133;51.012;-1.648;2022-08-03T05:29:30;100411.78;;;18.38;100.00
53480;BME280;56133;51.012;-1.648;2022-08-03T05:31:55;100415.66;;;18.44;100.00
53480;BME280;56133;51.012;-1.648;2022-08-03T05:34:21;100416.69;;;18.43;100.00
53480;BME280;56133;51.012;-1.648;2022-08-03T05:36:46;100415.53;;;18.37;100.00
53480;BME280;56133;51.012;-1.648;2022-08-03T05:39:12;100425.59;;;18.37;100.00
53480;BME280;56133;51.012;-1.648;2022-08-03T05:41:37;100424.56;;;18.38;100.00
53480;BME280;56133;51.012;-1.648;2022-08-03T05:44:03;100429.78;;;18.39;100.00
53480;BME280;56133;51.012;-1.648;2022-08-03T05:46:29;100425.03;;;18.41;100.00
53480;BME280;56133;51.012;-1.648;2022-08-03T05:48:54;100428.31;;;18.37;100.00
53480;BME280;56133;51.012;-1.648;2022-08-03T05:51:20;100434.03;;;18.27;100.00
53480;BME280;56133;51.012;-1.648;2022-08-03T05:53:45;100434.59;;;18.22;100.00
53480;BME280;56133;51.012;-1.648;2022-08-03T05:56:11;100428.47;;;18.20;100.00
53480;BME280;56133;51.012;-1.648;2022-08-03T05:58:36;100422.69;;;18.23;100.00
53480;BME280;56133;51.012;-1.648;2022-08-03T06:01:02;100431.88;;;18.22;100.00
53480;BME280;56133;51.012;-1.648;2022-08-03T06:03:28;100435.72;;;18.28;100.00
53480;BME280;56133;51.012;-1.648;2022-08-03T06:05:53;100433.09;;;18.34;100.00
53480;BME280;56133;51.012;-1.648;2022-08-03T06:08:22;100433.38;;;18.40;100.00
53480;BME280;56133;51.012;-1.648;2022-08-03T06:10:48;100434.31;;;18.47;100.00
53480;BME280;56133;51.012;-1.648;2022-08-03T06:13:13;100428.59;;;18.42;100.00
53480;BME280;56133;51.012;-1.648;2022-08-03T06:15:39;100432.72;;;18.38;100.00
53480;BME280;56133;51.012;-1.648;2022-08-03T06:18:04;100434.50;;;18.45;100.00
53480;BME280;56133;51.012;-1.648;2022-08-03T06:20:32;100431.78;;;18.45;100.00
53480;BME280;56133;51.012;-1.648;2022-08-03T06:22:57;100436.84;;;18.48;100.00
53480;BME280;56133;51.012;-1.648;2022-08-03T06:25:24;100430.47;;;18.56;100.00
53480;BME280;56133;51.012;-1.648;2022-08-03T06:27:50;100436.66;;;18.65;100.00
53480;BME280;56133;51.012;-1.648;2022-08-03T06:30:16;100436.81;;;18.63;100.00
53480;BME280;56133;51.012;-1.648;2022-08-03T06:32:43;100431.59;;;18.77;100.00
53480;BME280;56133;51.012;-1.648;2022-08-03T06:35:08;100433.28;;;18.78;100.00
53480;BME280;56133;51.012;-1.648;2022-08-03T06:37:43;100439.47;;;18.72;100.00
53480;BME280;56133;51.012;-1.648;2022-08-03T06:40:15;100446.75;;;18.86;100.00
53480;BME280;56133;51.012;-1.648;2022-08-03T06:42:41;100440.56;;;18.77;100.00
53480;BME280;56133;51.012;-1.648;2022-08-03T06:45:07;100434.56;;;18.82;100.00
53480;BME280;56133;51.012;-1.648;2022-08-03T06:47:35;100435.59;;;18.81;100.00
53480;BME280;56133;51.012;-1.648;2022-08-03T06:50:01;100436.16;;;18.76;100.00
53480;BME280;56133;51.012;-1.648;2022-08-03T06:52:27;100445.94;;;18.71;100.00
53480;BME280;56133;51.012;-1.648;2022-08-03T06:54:52;100438.81;;;18.70;100.00
53480;BME280;56133;51.012;-1.648;2022-08-03T06:57:18;100445.72;;;18.87;100.00
53480;BME280;56133;51.012;-1.648;2022-08-03T06:59:43;100444.03;;;18.86;100.00
53480;BME280;56133;51.012;-1.648;2022-08-03T07:02:09;100438.72;;;18.78;100.00
53480;BME280;56133;51.012;-1.648;2022-08-03T07:04:36;100436.44;;;18.81;100.00
53480;BME280;56133;51.012;-1.648;2022-08-03T07:07:01;100449.22;;;18.96;100.00
53480;BME280;56133;51.012;-1.648;2022-08-03T07:09:27;100449.38;;;19.09;100.00
53480;BME280;56133;51.012;-1.648;2022-08-03T07:11:53;100448.34;;;19.10;100.00
53480;BME280;56133;51.012;-1.648;2022-08-03T07:14:20;100452.00;;;19.18;100.00
53480;BME280;56133;51.012;-1.648;2022-08-03T07:16:45;100447.66;;;19.23;100.00
53480;BME280;56133;51.012;-1.648;2022-08-03T07:19:11;100446.03;;;19.29;100.00
53480;BME280;56133;51.012;-1.648;2022-08-03T07:21:36;100444.38;;;19.50;100.00
53480;BME280;56133;51.012;-1.648;2022-08-03T07:24:02;100450.28;;;19.75;100.00
53480;BME280;56133;51.012;-1.648;2022-08-03T07:26:28;100450.41;;;19.89;100.00
53480;BME280;56133;51.012;-1.648;2022-08-03T07:28:53;100454.75;;;19.83;100.00
53480;BME280;56133;51.012;-1.648;2022-08-03T07:31:19;100454.84;;;19.90;100.00
53480;BME280;56133;51.012;-1.648;2022-08-03T07:33:44;100455.66;;;19.90;100.00
53480;BME280;56133;51.012;-1.648;2022-08-03T07:36:10;100457.50;;;20.05;100.00
53480;BME280;56133;51.012;-1.648;2022-08-03T07:38:35;100464.69;;;19.91;100.00
53480;BME280;56133;51.012;-1.648;2022-08-03T07:41:02;100457.16;;;19.93;100.00
53480;BME280;56133;51.012;-1.648;2022-08-03T07:43:28;100455.09;;;19.95;100.00
53480;BME280;56133;51.012;-1.648;2022-08-03T07:45:54;100454.88;;;19.96;100.00
53480;BME280;56133;51.012;-1.648;2022-08-03T07:48:20;100453.13;;;20.10;100.00
53480;BME280;56133;51.012;-1.648;2022-08-03T07:50:45;100450.88;;;20.21;100.00
53480;BME280;56133;51.012;-1.648;2022-08-03T07:53:11;100452.31;;;20.16;100.00
53480;BME280;56133;51.012;-1.648;2022-08-03T07:55:37;100452.97;;;20.19;100.00
53480;BME280;56133;51.012;-1.648;2022-08-03T07:58:07;100457.22;;;19.99;100.00
53480;BME280;56133;51.012;-1.648;2022-08-03T08:00:34;100459.19;;;20.06;100.00
53480;BME280;56133;51.012;-1.648;2022-08-03T08:03:00;100462.03;;;20.26;100.00
53480;BME280;56133;51.012;-1.648;2022-08-03T08:05:26;100464.03;;;20.39;100.00
53480;BME280;56133;51.012;-1.648;2022-08-03T08:07:52;100472.16;;;20.67;100.00
53480;BME280;56133;51.012;-1.648;2022-08-03T08:10:18;100468.97;;;20.92;100.00
53480;BME280;56133;51.012;-1.648;2022-08-03T08:12:44;100463.56;;;20.70;100.00
53480;BME280;56133;51.012;-1.648;2022-08-03T08:15:10;100460.69;;;20.43;100.00
53480;BME280;56133;51.012;-1.648;2022-08-03T08:17:47;100469.59;;;20.94;100.00
53480;BME280;56133;51.012;-1.648;2022-08-03T08:20:33;100463.81;;;21.24;100.00
53480;BME280;56133;51.012;-1.648;2022-08-03T08:23:02;100462.63;;;21.40;100.00
53480;BME280;56133;51.012;-1.648;2022-08-03T08:25:28;100472.56;;;20.99;100.00
53480;BME280;56133;51.012;-1.648;2022-08-03T08:27:54;100467.88;;;20.51;100.00
53480;BME280;56133;51.012;-1.648;2022-08-03T08:30:22;100473.94;;;20.46;100.00
53480;BME280;56133;51.012;-1.648;2022-08-03T08:32:48;100467.78;;;20.38;100.00
53480;BME280;56133;51.012;-1.648;2022-08-03T08:35:14;100476.75;;;20.31;100.00
53480;BME280;56133;51.012;-1.648;2022-08-03T08:37:40;100469.19;;;20.27;100.00
53480;BME280;56133;51.012;-1.648;2022-08-03T08:40:08;100479.56;;;20.16;100.00
53480;BME280;56133;51.012;-1.648;2022-08-03T08:42:36;100481.53;;;20.23;100.00
53480;BME280;56133;51.012;-1.648;2022-08-03T08:45:03;100480.44;;;20.17;100.00
53480;BME280;56133;51.012;-1.648;2022-08-03T08:47:31;100478.84;;;19.79;100.00
53480;BME280;56133;51.012;-1.648;2022-08-03T08:49:58;100473.31;;;19.94;100.00
53480;BME280;56133;51.012;-1.648;2022-08-03T08:52:27;100487.88;;;20.30;100.00
53480;BME280;56133;51.012;-1.648;2022-08-03T08:54:57;100476.88;;;20.52;100.00
53480;BME280;56133;51.012;-1.648;2022-08-03T08:57:27;100479.00;;;20.21;100.00
53480;BME280;56133;51.012;-1.648;2022-08-03T08:59:54;100486.88;;;20.09;100.00
53480;BME280;56133;51.012;-1.648;2022-08-03T09:02:22;100489.66;;;20.16;100.00
53480;BME280;56133;51.012;-1.648;2022-08-03T09:04:48;100482.13;;;20.18;100.00
53480;BME280;56133;51.012;-1.648;2022-08-03T09:07:15;100489.78;;;20.08;100.00
53480;BME280;56133;51.012;-1.648;2022-08-03T09:09:40;100484.66;;;20.20;100.00
53480;BME280;56133;51.012;-1.648;2022-08-03T09:12:07;100486.63;;;20.04;100.00
53480;BME280;56133;51.012;-1.648;2022-08-03T09:14:33;100479.38;;;19.90;100.00
53480;BME280;56133;51.012;-1.648;2022-08-03T09:17:00;100481.03;;;20.12;100.00
53480;BME280;56133;51.012;-1.648;2022-08-03T09:19:27;100475.38;;;20.14;100.00
53480;BME280;56133;51.012;-1.648;2022-08-03T09:22:11;100468.56;;;19.81;100.00
53480;BME280;56133;51.012;-1.648;2022-08-03T09:24:38;100477.53;;;19.75;100.00
53480;BME280;56133;51.012;-1.648;2022-08-03T09:27:18;100466.50;;;20.05;100.00
53480;BME280;56133;51.012;-1.648;2022-08-03T09:29:47;100469.53;;;20.45;100.00
53480;BME280;56133;51.012;-1.648;2022-08-03T09:32:13;100470.47;;;20.31;100.00
53480;BME280;56133;51.012;-1.648;2022-08-03T09:34:39;100473.03;;;20.39;100.00
53480;BME280;56133;51.012;-1.648;2022-08-03T09:37:13;100465.47;;;20.70;100.00
53480;BME280;56133;51.012;-1.648;2022-08-03T09:39:39;100471.25;;;20.82;100.00
53480;BME280;56133;51.012;-1.648;2022-08-03T09:42:09;100479.28;;;20.97;100.00
53480;BME280;56133;51.012;-1.648;2022-08-03T09:44:48;100472.88;;;21.18;100.00
53480;BME280;56133;51.012;-1.648;2022-08-03T09:47:16;100470.75;;;21.27;100.00
53480;BME280;56133;51.012;-1.648;2022-08-03T09:50:06;100475.31;;;20.99;100.00
53480;BME280;56133;51.012;-1.648;2022-08-03T09:52:39;100463.25;;;20.87;100.00
53480;BME280;56133;51.012;-1.648;2022-08-03T09:55:11;100457.53;;;21.17;100.00
53480;BME280;56133;51.012;-1.648;2022-08-03T09:57:37;100458.31;;;21.04;100.00
53480;BME280;56133;51.012;-1.648;2022-08-03T10:00:12;100465.34;;;20.85;100.00
53480;BME280;56133;51.012;-1.648;2022-08-03T10:02:40;100466.03;;;20.93;100.00
53480;BME280;56133;51.012;-1.648;2022-08-03T10:05:07;100471.66;;;20.85;100.00
53480;BME280;56133;51.012;-1.648;2022-08-03T10:07:48;100468.53;;;20.88;100.00
53480;BME280;56133;51.012;-1.648;2022-08-03T10:10:15;100469.34;;;20.82;100.00
53480;BME280;56133;51.012;-1.648;2022-08-03T10:12:42;100480.03;;;20.84;100.00
53480;BME280;56133;51.012;-1.648;2022-08-03T10:15:09;100466.06;;;21.00;100.00
53480;BME280;56133;51.012;-1.648;2022-08-03T10:17:35;100462.06;;;20.96;100.00
53480;BME280;56133;51.012;-1.648;2022-08-03T10:20:01;100462.34;;;21.15;100.00
53480;BME280;56133;51.012;-1.648;2022-08-03T10:22:33;100464.88;;;21.30;100.00
53480;BME280;56133;51.012;-1.648;2022-08-03T10:25:03;100472.22;;;21.16;100.00
53480;BME280;56133;51.012;-1.648;2022-08-03T10:27:37;100471.13;;;21.10;100.00
53480;BME280;56133;51.012;-1.648;2022-08-03T10:30:07;100463.53;;;20.99;100.00
53480;BME280;56133;51.012;-1.648;2022-08-03T10:32:39;100469.75;;;20.86;100.00
53480;BME280;56133;51.012;-1.648;2022-08-03T10:35:21;100467.56;;;21.10;100.00
53480;BME280;56133;51.012;-1.648;2022-08-03T10:37:56;100466.31;;;21.19;100.00
53480;BME280;56133;51.012;-1.648;2022-08-03T10:40:22;100465.09;;;21.28;100.00
53480;BME280;56133;51.012;-1.648;2022-08-03T10:42:50;100458.84;;;21.34;100.00
53480;BME280;56133;51.012;-1.648;2022-08-03T10:45:20;100470.25;;;20.96;100.00
53480;BME280;56133;51.012;-1.648;2022-08-03T10:47:47;100463.53;;;20.99;100.00
53480;BME280;56133;51.012;-1.648;2022-08-03T10:50:14;100480.88;;;20.77;100.00
53480;BME280;56133;51.012;-1.648;2022-08-03T10:52:57;100477.16;;;20.92;100.00
53480;BME280;56133;51.012;-1.648;2022-08-03T10:58:47;100472.38;;;21.01;100.00
53480;BME280;56133;51.012;-1.648;2022-08-03T11:01:16;100467.22;;;21.33;100.00
53480;BME280;56133;51.012;-1.648;2022-08-03T11:06:18;100465.34;;;21.33;100.00
53480;BME280;56133;51.012;-1.648;2022-08-03T11:08:46;100472.34;;;21.63;100.00
53480;BME280;56133;51.012;-1.648;2022-08-03T11:13:56;100463.16;;;21.97;100.00
53480;BME280;56133;51.012;-1.648;2022-08-03T11:16:22;100473.44;;;21.89;100.00
53480;BME280;56133;51.012;-1.648;2022-08-03T11:19:00;100461.88;;;21.73;100.00
53480;BME280;56133;51.012;-1.648;2022-08-03T11:35:15;100478.75;;;21.21;100.00
53480;BME280;56133;51.012;-1.648;2022-08-03T11:40:47;100480.88;;;20.77;100.00
53480;BME280;56133;51.012;-1.648;2022-08-03T11:46:00;100477.75;;;20.81;100.00
53480;BME280;56133;51.012;-1.648;2022-08-03T11:48:33;100474.59;;;20.84;100.00
53480;BME280;56133;51.012;-1.648;2022-08-03T11:50:59;100475.75;;;21.10;100.00
53480;BME280;56133;51.012;-1.648;2022-08-03T11:53:26;100476.94;;;21.42;100.00
53480;BME280;56133;51.012;-1.648;2022-08-03T11:55:51;100463.84;;;21.37;100.00
53480;BME280;56133;51.012;-1.648;2022-08-03T11:58:22;100462.28;;;21.83;100.00
53480;BME280;56133;51.012;-1.648;2022-08-03T12:00:51;100461.66;;;22.28;100.00
53480;BME280;56133;51.012;-1.648;2022-08-03T12:03:19;100460.34;;;22.65;100.00
53480;BME280;56133;51.012;-1.648;2022-08-03T12:05:52;100455.91;;;23.16;93.25
53480;BME280;56133;51.012;-1.648;2022-08-03T12:08:38;100461.50;;;24.05;90.83
53480;BME280;56133;51.012;-1.648;2022-08-03T12:11:06;100470.16;;;23.77;88.01
53480;BME280;56133;51.012;-1.648;2022-08-03T12:13:42;100469.19;;;24.22;83.49
53480;BME280;56133;51.012;-1.648;2022-08-03T12:16:16;100464.34;;;24.17;81.33
53480;BME280;56133;51.012;-1.648;2022-08-03T12:18:43;100467.75;;;23.55;89.36
53480;BME280;56133;51.012;-1.648;2022-08-03T12:21:10;100470.91;;;23.13;89.13
53480;BME280;56133;51.012;-1.648;2022-08-03T12:23:37;100471.38;;;23.03;94.24
53480;BME280;56133;51.012;-1.648;2022-08-03T12:26:08;100470.81;;;22.81;94.11
53480;BME280;56133;51.012;-1.648;2022-08-03T12:28:34;100474.97;;;22.97;97.48
53480;BME280;56133;51.012;-1.648;2022-08-03T12:31:03;100477.34;;;22.87;95.68
53480;BME280;56133;51.012;-1.648;2022-08-03T12:33:31;100477.56;;;22.85;97.04
53480;BME280;56133;51.012;-1.648;2022-08-03T12:38:29;100481.00;;;22.40;96.43
53480;BME280;56133;51.012;-1.648;2022-08-03T12:41:07;100479.75;;;22.23;98.46
53480;BME280;56133;51.012;-1.648;2022-08-03T12:43:36;100485.00;;;22.38;100.00
53480;BME280;56133;51.012;-1.648;2022-08-03T12:46:13;100480.78;;;22.49;94.74
53480;BME280;56133;51.012;-1.648;2022-08-03T12:48:58;100478.00;;;22.76;99.86
53480;BME280;56133;51.012;-1.648;2022-08-03T12:51:25;100475.41;;;23.01;95.79
53480;BME280;56133;51.012;-1.648;2022-08-03T12:53:55;100471.09;;;23.18;90.42
53480;BME280;56133;51.012;-1.648;2022-08-03T12:56:22;100470.41;;;23.69;91.63
53480;BME280;56133;51.012;-1.648;2022-08-03T12:58:47;100475.34;;;23.53;88.90
53480;BME280;56133;51.012;-1.648;2022-08-03T13:01:15;100467.38;;;23.52;87.60
53480;BME280;56133;51.012;-1.648;2022-08-03T13:03:42;100458.94;;;25.41;80.89
53480;BME280;56133;51.012;-1.648;2022-08-03T13:06:19;100450.47;;;26.68;70.62
53480;BME280;56133;51.012;-1.648;2022-08-03T13:08:44;100453.06;;;25.68;75.76
53480;BME280;56133;51.012;-1.648;2022-08-03T13:13:43;100461.84;;;24.78;78.29
53480;BME280;56133;51.012;-1.648;2022-08-03T13:16:10;100458.03;;;24.79;76.86
53480;BME280;56133;51.012;-1.648;2022-08-03T13:18:35;100458.78;;;24.49;78.73
53480;BME280;56133;51.012;-1.648;2022-08-03T13:21:01;100466.19;;;24.23;82.52